Time;durP1;ratioP1;P1;durP2;ratioP2;P2;SDS_P1;SDS_P2;PMS_P1;PMS_P2;Temp;Humidity;BMP_temperature;BMP_pressure;BME280_temperature;BME280_humidity;BME280_pressure;Samples;Min_cycle;Max_cycle;Signal;HPM_P1;HPM_P2
2022/12/27 00:00:26;;;;;;;3.70;1.80;;;;;;;3.51;85.12;101161.22;5056919;28;20206;-79
2022/12/27 00:02:53;;;;;;;6.80;2.93;;;;;;;3.50;85.37;101165.63;5060980;28;20674;-80
2022/12/27 00:05:19;;;;;;;4.10;2.50;;;;;;;3.47;84.77;101166.56;5069313;28;20237;-80
2022/12/27 00:07:47;;;;;;;5.33;2.30;;;;;;;3.47;85.29;101163.06;5041771;28;20213;-81
2022/12/27 00:10:15;;;;;;;6.70;2.53;;;;;;;3.47;84.92;101157.81;5044531;28;20214;-83
2022/12/27 00:12:42;;;;;;;5.20;1.83;;;;;;;3.47;84.64;101158.66;5044098;28;20205;-81
2022/12/27 00:15:09;;;;;;;4.27;1.90;;;;;;;3.44;84.59;101166.66;5056274;28;20225;-81
2022/12/27 00:17:35;;;;;;;5.20;1.40;;;;;;;3.42;84.53;101162.31;5064278;28;20205;-84
2022/12/27 00:20:02;;;;;;;4.23;1.40;;;;;;;3.40;84.71;101169.41;5046874;28;20210;-82
2022/12/27 00:22:28;;;;;;;5.80;1.73;;;;;;;3.41;84.54;101171.13;5056364;28;20217;-83
2022/12/27 00:24:56;;;;;;;5.97;1.60;;;;;;;3.39;84.90;101171.19;5044550;28;20221;-82
2022/12/27 00:27:23;;;;;;;4.30;1.60;;;;;;;3.42;84.56;101180.75;5054254;28;20202;-81
2022/12/27 00:29:49;;;;;;;4.37;1.70;;;;;;;3.41;84.61;101174.63;5055416;28;20243;-81
2022/12/27 00:32:16;;;;;;;7.27;2.63;;;;;;;3.40;84.18;101188.69;5045290;28;20213;-82
2022/12/27 00:34:42;;;;;;;7.77;2.03;;;;;;;3.39;85.04;101197.50;5036935;28;20242;-81
2022/12/27 00:37:08;;;;;;;6.17;2.10;;;;;;;3.41;84.86;101200.94;5037206;28;20688;-81
2022/12/27 00:39:35;;;;;;;4.87;1.90;;;;;;;3.40;83.91;101201.84;5057343;28;20699;-81
2022/12/27 00:42:03;;;;;;;11.80;2.40;;;;;;;3.39;84.30;101208.03;5056639;28;20664;-83
2022/12/27 00:44:30;;;;;;;4.50;2.07;;;;;;;3.38;84.27;101195.78;5055137;28;20233;-81
2022/12/27 00:46:56;;;;;;;6.93;2.50;;;;;;;3.37;83.83;101195.81;5058053;28;20587;-81
2022/12/27 00:49:23;;;;;;;7.87;3.27;;;;;;;3.37;83.75;101195.81;5057162;28;20657;-81
2022/12/27 00:51:49;;;;;;;7.67;2.20;;;;;;;3.38;84.35;101198.41;5056339;28;20214;-82
2022/12/27 00:54:16;;;;;;;5.80;2.67;;;;;;;3.38;84.81;101190.53;5051208;28;20244;-83
2022/12/27 00:56:42;;;;;;;4.80;2.80;;;;;;;3.40;84.10;101186.03;5056933;28;20222;-83
2022/12/27 00:59:11;;;;;;;11.97;2.57;;;;;;;3.41;84.69;101197.44;5056593;28;20213;-81
2022/12/27 01:01:39;;;;;;;8.57;2.63;;;;;;;3.42;84.05;101205.31;5056097;28;20716;-80
2022/12/27 01:04:05;;;;;;;4.87;2.47;;;;;;;3.45;84.50;101218.41;5042982;28;20233;-82
2022/12/27 01:06:34;;;;;;;7.87;2.47;;;;;;;3.43;84.57;101211.44;5046109;28;20218;-82
2022/12/27 01:09:02;;;;;;;6.50;2.10;;;;;;;3.47;83.98;101213.09;5055296;28;20213;-81
2022/12/27 01:11:31;;;;;;;5.93;2.37;;;;;;;3.47;84.25;101216.59;5054349;28;20216;-82
2022/12/27 01:14:00;;;;;;;5.43;2.53;;;;;;;3.51;84.10;101227.06;5044909;28;20233;-81
2022/12/27 01:16:30;;;;;;;5.90;2.40;;;;;;;3.52;83.93;101232.28;5045889;28;20202;-81
2022/12/27 01:18:57;;;;;;;6.37;2.90;;;;;;;3.54;84.17;101235.75;5052977;28;20214;-81
2022/12/27 01:21:24;;;;;;;4.50;2.50;;;;;;;3.55;83.62;101240.13;5041644;28;20214;-81
2022/12/27 01:23:51;;;;;;;3.20;2.27;;;;;;;3.56;83.79;101243.63;5047454;28;20236;-81
2022/12/27 01:26:19;;;;;;;8.37;2.33;;;;;;;3.56;83.05;101236.59;5050035;28;20229;-81
2022/12/27 01:28:47;;;;;;;7.10;2.00;;;;;;;3.58;83.34;101240.06;5037957;28;20214;-81
2022/12/27 01:31:16;;;;;;;6.10;2.87;;;;;;;3.58;83.24;101247.09;5039336;28;20206;-80
2022/12/27 01:33:44;;;;;;;8.50;2.10;;;;;;;3.57;82.49;101246.22;5054422;28;20804;-81
2022/12/27 01:36:13;;;;;;;3.80;2.10;;;;;;;3.55;83.25;101248.03;5057645;28;20205;-82
2022/12/27 01:38:41;;;;;;;8.50;2.73;;;;;;;3.53;82.49;101243.69;5044438;28;20209;-81
2022/12/27 01:43:57;;;;;;;6.07;2.10;;;;;;;3.51;82.48;101237.59;5055086;28;20243;-82
2022/12/27 01:46:24;;;;;;;4.10;1.83;;;;;;;3.51;82.16;101249.00;5055164;28;20230;-81
2022/12/27 01:48:52;;;;;;;2.87;1.87;;;;;;;3.48;82.65;101239.41;5054403;28;20205;-80
2022/12/27 01:51:19;;;;;;;7.93;2.53;;;;;;;3.47;83.05;101239.44;5054792;28;20213;-81
2022/12/27 01:53:49;;;;;;;9.60;1.87;;;;;;;3.48;82.76;101241.16;5051644;28;20207;-82
2022/12/27 01:56:20;;;;;;;5.47;1.73;;;;;;;3.44;82.79;101231.59;5050128;28;20202;-80
2022/12/27 01:58:51;;;;;;;8.43;2.20;;;;;;;3.43;83.09;101235.13;5047655;28;20581;-81
2022/12/27 02:01:20;;;;;;;5.47;1.67;;;;;;;3.45;83.14;101242.09;5049346;28;20202;-81
2022/12/27 02:03:49;;;;;;;3.03;1.43;;;;;;;3.43;82.34;101241.28;5062833;28;20204;-81
2022/12/27 02:06:18;;;;;;;5.87;1.93;;;;;;;3.42;83.23;101236.91;5061921;28;20225;-80
2022/12/27 02:08:52;;;;;;;6.20;1.63;;;;;;;3.41;82.80;101248.34;5047372;28;20669;-81
2022/12/27 02:11:49;;;;;;;5.43;1.77;;;;;;;3.38;82.92;101245.81;5048472;28;20212;-81
2022/12/27 02:14:11;;;;;;;7.00;2.13;;;;;;;3.37;83.23;101243.22;5049736;28;20247;-81
2022/12/27 02:16:38;;;;;;;10.37;1.90;;;;;;;3.34;83.17;101245.91;5051186;28;20204;-80
2022/12/27 02:19:11;;;;;;;2.97;1.20;;;;;;;3.33;83.16;101263.47;5052483;28;20209;-81
2022/12/27 02:22:03;;;;;;;4.83;1.73;;;;;;;3.33;83.82;101258.22;5049626;28;20202;-80
2022/12/27 02:24:43;;;;;;;5.37;1.73;;;;;;;3.32;83.68;101263.50;5051358;28;20241;-81
2022/12/27 02:27:25;;;;;;;5.10;1.77;;;;;;;3.33;83.19;101263.47;5047645;28;20245;-80
2022/12/27 02:30:03;;;;;;;3.23;1.63;;;;;;;3.33;83.39;101254.72;5051809;28;20204;-81
2022/12/27 02:32:35;;;;;;;7.30;1.93;;;;;;;3.31;83.90;101260.00;5047462;28;20226;-82
2022/12/27 02:35:14;;;;;;;6.40;2.00;;;;;;;3.32;83.90;101255.59;5049780;28;20244;-81
2022/12/27 02:37:47;;;;;;;5.87;1.50;;;;;;;3.32;84.15;101255.59;5039318;28;20603;-82
2022/12/27 02:54:31;;;;;;;6.57;1.60;;;;;;;3.36;85.07;101262.53;5065325;28;20737;-82
2022/12/27 02:57:10;;;;;;;6.50;1.97;;;;;;;3.37;84.40;101261.63;5051730;28;20201;-84
2022/12/27 03:08:48;;;;;;;4.20;1.60;;;;;;;3.39;84.98;101255.44;5047102;28;20201;-81
2022/12/27 03:17:01;;;;;;;5.40;1.70;;;;;;;3.40;85.71;101257.13;5046578;28;20213;-82
2022/12/27 03:33:11;;;;;;;5.83;1.57;;;;;;;3.44;85.41;101261.44;5050342;28;20267;-81
2022/12/27 03:33:33;;;;;;;12.40;2.07;;;;;;;3.46;85.76;101264.03;5054274;28;20208;-81
2022/12/27 03:38:58;;;;;;;6.90;2.23;;;;;;;3.48;85.88;101255.19;5067888;28;20208;-83
2022/12/27 03:44:24;;;;;;;6.43;2.27;;;;;;;3.49;85.74;101258.69;5053790;28;20289;-81
2022/12/27 03:46:54;;;;;;;9.73;2.03;;;;;;;3.51;85.91;101263.94;5054705;28;20209;-80
2022/12/27 03:49:28;;;;;;;6.00;2.30;;;;;;;3.50;86.19;101270.97;5046704;28;20679;-81
2022/12/27 03:52:02;;;;;;;3.90;1.90;;;;;;;3.51;85.99;101258.66;5047087;28;20220;-81
2022/12/27 03:54:38;;;;;;;8.37;3.53;;;;;;;3.52;86.31;101270.94;5047750;28;20222;-80
2022/12/27 03:57:06;;;;;;;6.00;3.17;;;;;;;3.51;86.77;101264.78;5053473;28;20201;-80
2022/12/27 03:59:33;;;;;;;4.53;2.43;;;;;;;3.52;86.51;101266.53;5051733;28;20299;-81
2022/12/27 04:02:00;;;;;;;6.60;2.90;;;;;;;3.51;87.31;101266.56;5054271;28;20197;-81
2022/12/27 04:04:27;;;;;;;8.63;2.47;;;;;;;3.51;86.95;101272.69;5054221;28;20292;-81
2022/12/27 04:06:53;;;;;;;5.70;2.23;;;;;;;3.52;86.80;101268.28;5056046;28;20252;-80
2022/12/27 04:36:45;;;;;;;3.93;3.00;;;;;;;3.67;88.56;101274.03;5047827;28;20223;-81
2022/12/27 04:39:11;;;;;;;5.23;3.47;;;;;;;3.73;88.48;101291.47;5054533;28;20213;-83
2022/12/27 04:55:24;;;;;;;9.47;3.90;;;;;;;3.86;88.05;101284.97;5052643;28;20233;-83
2022/12/27 04:57:52;;;;;;;8.37;3.70;;;;;;;3.89;87.65;101290.19;5048960;28;20221;-82
2022/12/27 05:03:07;;;;;;;6.17;3.97;;;;;;;3.93;87.97;101291.84;5048989;28;20262;-82
2022/12/27 05:05:35;;;;;;;7.90;4.73;;;;;;;3.96;87.51;101291.72;5043903;28;20226;-81
2022/12/27 05:16:17;;;;;;;10.67;4.70;;;;;;;4.10;87.74;101297.53;5038609;28;20882;-81
2022/12/27 05:18:44;;;;;;;7.37;4.63;;;;;;;4.13;87.59;101297.44;5053278;28;20213;-81
2022/12/27 05:21:10;;;;;;;6.43;4.20;;;;;;;4.16;87.68;101299.13;5053367;28;20220;-81
2022/12/27 05:26:22;;;;;;;7.87;4.07;;;;;;;4.24;87.33;101289.25;5049986;28;20255;-81
2022/12/27 05:28:51;;;;;;;9.33;4.67;;;;;;;4.26;87.63;101297.13;5052384;28;20201;-82
2022/12/27 05:31:19;;;;;;;6.50;4.27;;;;;;;4.27;87.22;101294.44;5045520;28;20210;-81
2022/12/27 05:33:45;;;;;;;5.93;4.00;;;;;;;4.30;86.98;101298.78;5052961;28;20202;-82
2022/12/27 05:36:12;;;;;;;5.43;3.57;;;;;;;4.30;87.00;101296.97;5045794;28;20210;-81
2022/12/27 05:38:38;;;;;;;7.93;4.50;;;;;;;4.35;87.44;101313.53;5048208;28;20227;-83
2022/12/27 05:41:06;;;;;;;8.60;4.83;;;;;;;4.38;86.81;101309.97;5062934;28;20644;-83
2022/12/27 05:43:33;;;;;;;6.37;4.03;;;;;;;4.38;86.40;101310.84;5046911;28;20201;-81
2022/12/27 05:46:05;;;;;;;6.37;4.00;;;;;;;4.37;87.07;101313.50;5045298;28;20676;-82
2022/12/27 05:48:32;;;;;;;8.03;5.27;;;;;;;4.36;86.69;101327.59;5053482;28;20206;-81
2022/12/27 05:50:58;;;;;;;7.60;5.03;;;;;;;4.38;86.69;101328.44;5050338;28;20210;-82
2022/12/27 05:53:25;;;;;;;6.87;4.63;;;;;;;4.39;86.81;101338.06;5045420;28;20651;-81
2022/12/27 05:55:55;;;;;;;8.57;4.83;;;;;;;4.42;86.98;101332.72;5050497;28;20715;-83
2022/12/27 05:58:21;;;;;;;9.07;5.30;;;;;;;4.43;86.63;101335.31;5041137;28;20213;-81
2022/12/27 06:00:48;;;;;;;9.97;5.20;;;;;;;4.47;86.26;101333.47;5053498;28;20198;-81
2022/12/27 06:03:16;;;;;;;7.60;5.87;;;;;;;4.46;86.33;101329.09;5059121;28;20216;-83
2022/12/27 06:05:42;;;;;;;6.03;5.37;;;;;;;4.47;86.60;101336.09;5047616;28;20225;-82
2022/12/27 06:08:09;;;;;;;11.07;5.40;;;;;;;4.44;86.73;101337.06;5045557;28;20233;-82
2022/12/27 06:10:36;;;;;;;7.63;5.30;;;;;;;4.45;86.59;101353.75;5049794;28;20209;-83
2022/12/27 06:13:04;;;;;;;10.73;4.73;;;;;;;4.44;86.37;101342.31;5040299;28;20657;-84
2022/12/27 06:15:31;;;;;;;9.40;5.07;;;;;;;4.46;85.90;101351.06;5046871;28;20228;-81
2022/12/27 06:17:59;;;;;;;6.17;5.20;;;;;;;4.48;86.29;101353.63;5050651;28;20206;-83
2022/12/27 06:20:27;;;;;;;6.37;5.43;;;;;;;4.47;86.09;101362.47;5052255;28;20208;-83
2022/12/27 06:22:53;;;;;;;8.10;6.17;;;;;;;4.49;86.56;101355.38;5053748;28;20213;-83
2022/12/27 06:25:20;;;;;;;7.27;5.37;;;;;;;4.49;86.41;101369.41;5043448;28;20225;-83
2022/12/27 06:27:46;;;;;;;9.17;6.13;;;;;;;4.48;86.22;101361.53;5045549;28;20228;-83
2022/12/27 06:30:14;;;;;;;9.63;5.43;;;;;;;4.49;86.00;101358.00;5051515;28;20309;-82
2022/12/27 06:32:40;;;;;;;7.83;5.47;;;;;;;4.49;85.96;101360.63;5060375;28;20220;-81
2022/12/27 06:35:09;;;;;;;7.17;5.33;;;;;;;4.48;85.93;101358.91;5051211;28;20706;-83
2022/12/27 06:37:37;;;;;;;7.57;5.50;;;;;;;4.47;86.44;101365.97;5059451;28;20227;-83
2022/12/27 06:40:04;;;;;;;10.77;6.47;;;;;;;4.50;86.01;101365.00;5053451;28;20201;-83
2022/12/27 06:42:31;;;;;;;8.53;6.40;;;;;;;4.49;85.77;101365.91;5051888;28;20562;-83
2022/12/27 06:44:57;;;;;;;8.40;6.63;;;;;;;4.48;86.40;101358.91;5049904;28;20221;-82
2022/12/27 06:47:24;;;;;;;7.67;6.30;;;;;;;4.45;85.99;101354.59;5058989;28;20266;-82
2022/12/27 06:49:50;;;;;;;10.47;6.93;;;;;;;4.45;86.08;101349.34;5052922;28;20209;-81
2022/12/27 06:52:17;;;;;;;10.77;6.63;;;;;;;4.46;86.31;101355.47;5054235;28;20202;-84
2022/12/27 06:54:44;;;;;;;11.63;6.30;;;;;;;4.48;86.22;101364.19;5055762;28;20232;-84
2022/12/27 06:57:11;;;;;;;9.00;5.87;;;;;;;4.46;86.45;101373.94;5056313;28;20208;-83
2022/12/27 06:59:37;;;;;;;10.50;6.97;;;;;;;4.46;86.42;101371.28;5050655;28;20206;-84
2022/12/27 07:02:04;;;;;;;11.23;6.33;;;;;;;4.47;85.88;101380.94;5060222;28;20201;-84
2022/12/27 07:04:30;;;;;;;9.50;6.80;;;;;;;4.46;86.12;101387.13;5063258;28;20231;-83
2022/12/27 07:06:57;;;;;;;10.07;7.40;;;;;;;4.46;86.12;101387.13;5056547;28;20218;-83
2022/12/27 07:09:23;;;;;;;7.80;6.57;;;;;;;4.45;85.96;101396.81;5044656;28;20672;-83
2022/12/27 07:11:52;;;;;;;8.70;6.70;;;;;;;4.42;86.08;101393.38;5047703;28;20201;-83
2022/12/27 07:14:19;;;;;;;9.27;7.20;;;;;;;4.41;86.70;101397.78;5052210;28;20762;-82
2022/12/27 07:16:45;;;;;;;10.20;6.17;;;;;;;4.43;86.61;101408.28;5055399;28;20205;-81
2022/12/27 07:19:12;;;;;;;13.17;7.17;;;;;;;4.43;86.34;101397.75;5056862;28;20225;-81
2022/12/27 07:21:38;;;;;;;8.43;6.97;;;;;;;4.43;86.43;101403.03;5049373;28;20202;-83
2022/12/27 07:24:06;;;;;;;8.77;7.43;;;;;;;4.43;86.56;101405.66;5047861;28;20246;-83
2022/12/27 07:26:32;;;;;;;6.37;5.77;;;;;;;4.44;86.66;101405.63;5052650;28;20204;-82
2022/12/27 07:29:01;;;;;;;8.83;7.47;;;;;;;4.45;86.99;101412.63;5053628;28;20222;-81
2022/12/27 07:31:30;;;;;;;11.27;7.83;;;;;;;4.45;86.76;101425.81;5059583;28;20675;-84
2022/12/27 07:33:58;;;;;;;10.73;6.93;;;;;;;4.46;86.68;101421.41;5059160;28;21011;-81
2022/12/27 07:36:26;;;;;;;12.50;8.83;;;;;;;4.47;87.29;101423.16;5048084;28;20214;-82
2022/12/27 07:38:53;;;;;;;7.73;6.27;;;;;;;4.48;87.14;101414.28;5054185;28;20201;-82
2022/12/27 07:41:20;;;;;;;11.57;6.97;;;;;;;4.49;87.26;101432.72;5049133;28;20204;-82
2022/12/27 07:43:46;;;;;;;10.47;6.33;;;;;;;4.48;86.53;101433.63;5045669;28;20198;-83
2022/12/27 07:46:16;;;;;;;10.53;6.60;;;;;;;4.50;86.81;101437.09;5050907;28;20652;-84
2022/12/27 07:48:43;;;;;;;9.90;6.10;;;;;;;4.48;86.96;101438.91;5060430;28;20708;-84
2022/12/27 07:51:10;;;;;;;11.60;6.37;;;;;;;4.46;87.21;101448.66;5055070;28;20220;-83
2022/12/27 07:53:37;;;;;;;8.73;5.47;;;;;;;4.47;87.14;101452.16;5058923;28;20201;-81
2022/12/27 07:56:08;;;;;;;6.60;5.50;;;;;;;4.50;86.97;101457.31;5052512;28;20206;-83
2022/12/27 07:58:38;;;;;;;13.27;6.20;;;;;;;4.48;87.32;101454.72;5040356;28;20230;-81
2022/12/27 08:01:05;;;;;;;9.40;5.73;;;;;;;4.48;87.52;101453.88;5047826;28;20687;-82
2022/12/27 08:03:33;;;;;;;8.60;5.37;;;;;;;4.50;86.98;101462.59;5056114;28;20205;-82
2022/12/27 08:06:00;;;;;;;11.23;6.27;;;;;;;4.51;86.78;101472.25;5050566;28;20229;-81
2022/12/27 08:08:34;;;;;;;6.90;5.50;;;;;;;4.52;87.04;101468.72;5053741;28;20217;-83
2022/12/27 08:11:01;;;;;;;9.63;5.87;;;;;;;4.55;87.10;101473.91;5043195;28;20212;-81
2022/12/27 08:13:27;;;;;;;8.23;5.70;;;;;;;4.56;86.98;101474.78;5047712;28;20202;-81
2022/12/27 08:15:54;;;;;;;10.50;5.30;;;;;;;4.57;86.73;101482.66;5046383;28;20225;-81
2022/12/27 08:18:21;;;;;;;10.60;5.90;;;;;;;4.57;86.77;101490.56;5051346;28;20210;-83
2022/12/27 08:20:50;;;;;;;8.13;5.03;;;;;;;4.60;87.07;101489.63;5050527;28;20202;-82
2022/12/27 08:23:16;;;;;;;14.00;6.07;;;;;;;4.58;86.74;101497.59;5042673;28;20209;-82
2022/12/27 08:25:44;;;;;;;11.10;4.93;;;;;;;4.59;86.69;101498.44;5043067;28;20233;-83
2022/12/27 08:28:13;;;;;;;10.73;5.90;;;;;;;4.60;86.88;101503.69;5053521;28;20236;-84
2022/12/27 08:30:41;;;;;;;7.37;5.57;;;;;;;4.61;86.56;101512.47;5036689;28;20311;-83
2022/12/27 08:33:08;;;;;;;12.87;5.57;;;;;;;4.61;86.85;101518.63;5044137;28;20289;-82
2022/12/27 08:35:39;;;;;;;7.83;4.63;;;;;;;4.63;86.82;101522.09;5042889;28;20226;-81
2022/12/27 08:38:06;;;;;;;9.40;4.53;;;;;;;4.65;86.24;101520.28;5050778;28;20208;-82
2022/12/27 08:40:33;;;;;;;8.30;4.53;;;;;;;4.65;86.05;101520.28;5050312;28;20206;-82
2022/12/27 08:42:59;;;;;;;6.93;5.00;;;;;;;4.66;86.41;101524.63;5041510;28;20565;-81
2022/12/27 08:45:26;;;;;;;10.47;4.67;;;;;;;4.65;86.07;101520.28;5043937;28;20225;-82
2022/12/27 08:47:52;;;;;;;6.27;4.40;;;;;;;4.69;85.78;101521.91;5048491;28;20926;-81
2022/12/27 08:50:19;;;;;;;6.47;4.60;;;;;;;4.68;85.84;101521.94;5046632;28;20312;-81
2022/12/27 08:52:45;;;;;;;6.20;4.57;;;;;;;4.69;85.93;101524.56;5047772;28;20210;-81
2022/12/27 08:55:13;;;;;;;7.53;5.17;;;;;;;4.71;85.51;101533.31;5039261;28;20229;-82
2022/12/27 08:57:40;;;;;;;7.17;4.87;;;;;;;4.72;85.56;101529.75;5043102;28;20202;-81
2022/12/27 09:00:08;;;;;;;7.33;5.10;;;;;;;4.75;85.32;101534.97;5043520;28;20218;-81
2022/12/27 09:02:34;;;;;;;5.43;4.87;;;;;;;4.76;85.45;101535.84;5048801;28;20686;-81
2022/12/27 09:05:00;;;;;;;7.57;4.80;;;;;;;4.77;85.20;101541.06;5050988;28;20589;-81
2022/12/27 09:07:27;;;;;;;7.63;4.00;;;;;;;4.79;84.92;101539.28;5044543;28;20238;-81
2022/12/27 09:09:53;;;;;;;7.97;4.77;;;;;;;4.76;84.49;101536.69;5050109;28;20209;-84
2022/12/27 09:12:21;;;;;;;7.17;4.50;;;;;;;4.76;84.75;101541.13;5046370;28;20208;-84
2022/12/27 09:14:48;;;;;;;7.17;4.00;;;;;;;4.77;84.79;101545.47;5049050;28;20252;-82
2022/12/27 09:17:14;;;;;;;5.83;3.83;;;;;;;4.77;84.51;101543.72;5054931;28;20205;-83
2022/12/27 09:19:41;;;;;;;4.67;3.33;;;;;;;4.78;84.62;101548.09;5049381;28;20213;-83
2022/12/27 09:22:07;;;;;;;5.20;3.57;;;;;;;4.76;84.39;101538.47;5043380;28;20217;-82
2022/12/27 09:24:34;;;;;;;7.50;3.43;;;;;;;4.76;84.18;101551.66;5042624;28;20222;-81
2022/12/27 09:27:00;;;;;;;9.73;3.77;;;;;;;4.75;84.50;101557.84;5049350;28;20209;-82
2022/12/27 09:29:28;;;;;;;6.23;3.77;;;;;;;4.77;84.54;101556.03;5037842;28;20230;-83
2022/12/27 09:31:54;;;;;;;6.67;4.00;;;;;;;4.79;84.38;101559.50;5047660;28;20212;-82
2022/12/27 09:34:21;;;;;;;8.77;4.17;;;;;;;4.80;83.89;101556.84;5043682;28;20233;-81
2022/12/27 09:36:47;;;;;;;6.10;3.90;;;;;;;4.80;84.06;101562.13;5058854;28;20209;-81
2022/12/27 09:39:15;;;;;;;7.13;4.10;;;;;;;4.81;84.21;101571.78;5043958;28;20205;-82
2022/12/27 09:41:50;;;;;;;4.73;3.30;;;;;;;4.83;84.29;101572.59;5052820;28;20977;-82
2022/12/27 09:44:20;;;;;;;9.63;3.50;;;;;;;4.84;83.88;101565.53;5043719;28;20220;-82
2022/12/27 09:46:55;;;;;;;6.17;3.50;;;;;;;4.87;84.25;101568.09;5052537;28;20206;-82
2022/12/27 09:49:29;;;;;;;9.47;4.57;;;;;;;4.89;84.24;101572.44;5051345;28;20209;-82
2022/12/27 09:52:00;;;;;;;5.63;3.67;;;;;;;4.94;84.05;101574.09;5050394;28;20204;-82
2022/12/27 09:54:31;;;;;;;8.50;3.93;;;;;;;4.95;83.98;101581.09;5053099;28;20214;-82
2022/12/27 09:57:01;;;;;;;7.87;3.90;;;;;;;4.97;83.84;101588.09;5050125;28;20197;-82
2022/12/27 09:59:31;;;;;;;7.60;4.00;;;;;;;4.99;84.05;101590.69;5042518;28;20207;-82
2022/12/27 10:01:59;;;;;;;5.70;3.40;;;;;;;5.04;83.86;101592.28;5053403;28;20201;-83
2022/12/27 10:04:27;;;;;;;7.17;3.10;;;;;;;5.06;83.58;101585.19;5043612;28;20260;-83
2022/12/27 10:07:16;;;;;;;4.53;2.80;;;;;;;5.10;83.63;101589.50;5048471;28;20222;-83
2022/12/27 10:09:55;;;;;;;8.57;3.57;;;;;;;5.13;83.55;101596.47;5043545;28;20234;-83
2022/12/27 10:12:35;;;;;;;8.00;4.23;;;;;;;5.15;83.07;101589.38;5039008;28;20584;-83
2022/12/27 10:15:18;;;;;;;5.57;3.20;;;;;;;5.16;82.95;101588.47;5047839;28;20236;-84
2022/12/27 10:17:56;;;;;;;10.07;3.43;;;;;;;5.17;82.87;101591.09;5043837;28;20222;-83
2022/12/27 10:20:32;;;;;;;6.37;3.23;;;;;;;5.17;82.78;101590.22;5044970;28;20209;-83
2022/12/27 10:23:02;;;;;;;9.10;2.87;;;;;;;5.17;82.58;101591.09;5042592;28;20202;-82
2022/12/27 10:25:30;;;;;;;9.63;3.20;;;;;;;5.18;82.63;101599.88;5049943;28;20225;-83
2022/12/27 10:28:00;;;;;;;5.83;3.07;;;;;;;5.19;82.86;101594.56;5046568;28;20704;-83
2022/12/27 10:30:29;;;;;;;7.20;4.10;;;;;;;5.20;82.63;101592.75;5056712;28;20193;-83
2022/12/27 10:32:57;;;;;;;7.00;3.00;;;;;;;5.20;82.62;101580.41;5045567;28;20209;-83
2022/12/27 10:35:25;;;;;;;5.93;3.07;;;;;;;5.18;82.62;101594.59;5044930;28;20403;-83
2022/12/27 10:37:52;;;;;;;4.73;2.83;;;;;;;5.20;82.62;101587.47;5047320;28;20209;-82
2022/12/27 10:40:23;;;;;;;10.00;3.60;;;;;;;5.23;82.73;101596.19;5043381;28;20673;-83
2022/12/27 10:43:02;;;;;;;9.37;3.47;;;;;;;5.29;82.75;101586.38;5045852;28;20568;-83
2022/12/27 10:45:33;;;;;;;8.20;4.27;;;;;;;5.30;82.70;101591.63;5044470;28;20225;-83
2022/12/27 10:48:14;;;;;;;6.57;4.07;;;;;;;5.35;82.67;101596.78;5049498;28;20285;-83
2022/12/27 10:50:45;;;;;;;7.60;4.53;;;;;;;5.37;82.70;101584.41;5045838;28;20793;-83
2022/12/27 10:53:29;;;;;;;6.00;3.63;;;;;;;5.40;82.88;101585.16;5044391;28;20213;-83
2022/12/27 10:56:07;;;;;;;9.67;3.57;;;;;;;5.45;82.63;101582.41;5043248;28;20980;-83
2022/12/27 10:58:38;;;;;;;7.13;3.47;;;;;;;5.48;82.74;101588.47;5043612;28;20189;-82
2022/12/27 11:01:05;;;;;;;7.33;3.20;;;;;;;5.51;82.66;101595.47;5040138;28;20198;-81
2022/12/27 11:03:33;;;;;;;8.07;3.47;;;;;;;5.56;82.13;101591.75;5031220;28;20202;-80
2022/12/27 11:06:01;;;;;;;4.27;2.90;;;;;;;5.59;82.08;101599.63;5042419;28;20240;-81
2022/12/27 11:08:29;;;;;;;8.00;3.90;;;;;;;5.68;82.29;101595.00;5035869;28;20225;-81
2022/12/27 11:11:14;;;;;;;6.90;3.37;;;;;;;5.76;82.27;101595.63;5042714;28;20259;-81
2022/12/27 11:13:41;;;;;;;6.73;3.33;;;;;;;5.83;82.06;101603.34;5047699;28;20559;-80
2022/12/27 11:16:14;;;;;;;8.93;3.93;;;;;;;5.87;81.77;101601.50;5040933;28;20209;-81
2022/12/27 11:18:46;;;;;;;8.50;4.53;;;;;;;5.92;81.37;101604.88;5045895;28;20217;-81
2022/12/27 11:21:14;;;;;;;9.43;4.20;;;;;;;5.92;80.73;101594.31;5041879;28;20193;-80
2022/12/27 11:23:45;;;;;;;8.67;4.50;;;;;;;5.97;81.05;101595.03;5045045;28;20221;-81
2022/12/27 11:26:20;;;;;;;10.30;5.43;;;;;;;5.99;81.08;101601.16;5043969;28;20198;-80
2022/12/27 11:28:51;;;;;;;7.90;5.60;;;;;;;6.02;80.52;101600.22;5043236;28;20704;-81
2022/12/27 11:31:27;;;;;;;7.57;5.87;;;;;;;6.05;80.52;101602.78;5043936;28;20687;-81
2022/12/27 11:33:58;;;;;;;9.10;4.53;;;;;;;6.03;80.42;101597.53;5049513;28;20205;-81
2022/12/27 11:36:29;;;;;;;10.83;6.17;;;;;;;6.02;80.27;101601.06;5046918;28;20220;-83
2022/12/27 11:38:56;;;;;;;10.83;5.43;;;;;;;6.01;80.44;101609.91;5048943;28;20224;-82
2022/12/27 11:41:33;;;;;;;11.07;6.43;;;;;;;5.98;80.07;101614.44;5049319;28;20194;-82
2022/12/27 11:44:04;;;;;;;8.07;5.60;;;;;;;5.98;79.60;101612.66;5040430;28;20205;-82
2022/12/27 11:46:39;;;;;;;7.03;4.37;;;;;;;5.99;79.83;101613.50;5040300;28;20193;-82
2022/12/27 11:49:15;;;;;;;6.17;4.60;;;;;;;5.98;79.96;101612.66;5042813;28;20637;-81
2022/12/27 11:52:15;;;;;;;7.03;3.67;;;;;;;5.99;80.36;101611.75;5044015;28;20827;-80
2022/12/27 11:55:04;;;;;;;8.57;3.50;;;;;;;5.98;79.87;101599.44;5039644;28;20233;-81
2022/12/27 11:57:53;;;;;;;7.30;3.70;;;;;;;5.93;79.66;101594.25;5042534;28;20272;-80
2022/12/27 12:00:22;;;;;;;7.97;3.53;;;;;;;5.90;79.67;101615.53;5043287;28;20198;-81
2022/12/27 12:03:11;;;;;;;7.70;3.50;;;;;;;5.89;79.42;101615.56;5041508;28;20206;-80
2022/12/27 12:06:03;;;;;;;10.63;4.87;;;;;;;5.87;79.14;101622.66;5043441;28;20240;-80
2022/12/27 12:08:48;;;;;;;8.30;4.40;;;;;;;5.85;79.17;101620.03;5047226;28;20296;-81
2022/12/27 12:11:24;;;;;;;6.23;4.23;;;;;;;5.84;79.23;101623.59;5046772;28;20208;-82
2022/12/27 12:14:15;;;;;;;10.47;5.50;;;;;;;5.82;79.08;101616.59;5054404;28;20209;-82
2022/12/27 12:16:57;;;;;;;7.30;4.73;;;;;;;5.80;79.22;101614.00;5047245;28;20605;-83
2022/12/27 12:19:40;;;;;;;12.97;7.70;;;;;;;5.79;78.96;101611.41;5047563;28;20577;-83
2022/12/27 12:22:29;;;;;;;9.83;6.00;;;;;;;5.78;79.35;101617.59;5045536;28;20205;-82
2022/12/27 12:25:19;;;;;;;11.23;7.53;;;;;;;5.79;79.30;101629.91;5045080;28;20226;-83
2022/12/27 12:28:02;;;;;;;9.80;7.20;;;;;;;5.80;79.41;101629.00;5060209;28;20210;-83
2022/12/27 12:30:46;;;;;;;8.43;7.00;;;;;;;5.78;79.39;101617.59;5057419;28;20221;-83
2022/12/27 12:33:31;;;;;;;11.80;6.70;;;;;;;5.79;79.79;101620.19;5054692;28;20644;-83
2022/12/27 12:36:16;;;;;;;10.57;6.00;;;;;;;5.80;80.00;101627.22;5058908;28;20309;-82
2022/12/27 12:38:50;;;;;;;9.47;6.53;;;;;;;5.83;79.62;101636.84;5052031;28;20202;-82
2022/12/27 12:41:47;;;;;;;10.40;5.53;;;;;;;5.84;79.64;101635.94;5056583;28;20203;-83
2022/12/27 12:44:36;;;;;;;10.50;6.20;;;;;;;5.85;80.04;101640.31;5053669;28;20252;-82
2022/12/27 12:47:19;;;;;;;8.07;5.63;;;;;;;5.88;79.53;101645.53;5053416;28;20214;-82
2022/12/27 12:50:17;;;;;;;11.27;6.10;;;;;;;5.89;79.95;101636.72;5052623;28;20214;-82
2022/12/27 12:53:01;;;;;;;11.33;6.33;;;;;;;5.91;79.68;101635.75;5061292;28;20620;-82
2022/12/27 12:55:39;;;;;;;7.93;5.83;;;;;;;5.91;79.48;101638.38;5055406;28;20229;-82
2022/12/27 12:58:15;;;;;;;11.20;5.87;;;;;;;5.92;79.51;101626.03;5048198;28;20225;-82
2022/12/27 13:01:01;;;;;;;7.00;4.93;;;;;;;5.91;78.82;101621.69;5048923;28;20210;-82
2022/12/27 13:03:56;;;;;;;7.23;6.00;;;;;;;5.90;78.85;101620.81;5047426;28;20687;-83
2022/12/27 13:06:42;;;;;;;6.87;5.23;;;;;;;5.92;78.14;101621.63;5049334;28;20285;-82
2022/12/27 13:09:24;;;;;;;7.27;6.17;;;;;;;5.93;77.87;101611.91;5048702;28;20229;-82
2022/12/27 13:12:02;;;;;;;7.87;6.30;;;;;;;5.93;78.31;101606.63;5047393;28;20205;-82
2022/12/27 13:14:57;;;;;;;8.87;5.30;;;;;;;5.97;77.90;101612.69;5050238;28;20516;-82
2022/12/27 13:17:31;;;;;;;13.60;6.70;;;;;;;5.97;77.58;101613.56;5035464;28;20205;-83
2022/12/27 13:20:15;;;;;;;10.33;6.13;;;;;;;5.99;77.30;101605.59;5048421;28;20241;-82
2022/12/27 13:22:53;;;;;;;7.10;5.83;;;;;;;6.00;77.35;101605.53;5047313;28;20202;-82
2022/12/27 13:25:28;;;;;;;6.70;5.30;;;;;;;6.01;77.27;101603.75;5049851;28;20230;-83
2022/12/27 13:28:05;;;;;;;6.03;5.03;;;;;;;6.02;76.79;101609.00;5050287;28;20204;-82
2022/12/27 13:30:40;;;;;;;8.30;5.77;;;;;;;6.03;76.49;101610.75;5046189;28;20210;-83
2022/12/27 13:33:19;;;;;;;8.13;6.77;;;;;;;6.03;76.08;101607.22;5045322;28;20567;-83